Terminal Aerodrome Forecast
Issued by NWS Brownsville, TX

Home | Current Version | Previous Version | Text Only | Print | Product List | Glossary On
Versions: 1 2 3 4 5 6 7 8 9 10 11 12 13 14
928
FTUS44 KBRO 251720
TAFBRO
TAF
KBRO 251720Z 2518/2618 15017G24KT P6SM VCSH FEW040
     FM260300 11005KT P6SM BKN250 PROB30 2606/2612 P6SM -TSRA
      BKN050CB
     FM261200 08005KT P6SM OVC050
      TEMPO 2612/2615 P6SM -SHRA OVC050
     FM261500 09008KT P6SM OVC050
      TEMPO 2615/2618 P6SM -SHRA OVC050=

USA.gov is the U.S. government's official web portal to all federal, state and local government web resources and services.